Airfield :
LOGIN :

Register | Disclaimer

   EN    FR    IT 

 










Legend :    VFR   Marginal VFR   IFR   Intensive IFR   Very Intensive IFR
Visi :
Ceiling :
>= 8 km
>= 3000ft
5 to 8 km
1000 to 3000 ft
1500m to 5 km
500 to 1000 ft
800 to 1500m
200 to 500 ft
< 800m
< 200 ft
Symbols :   Thunderstorms  Fog  Heavy snow  Heavy precipitations  Wind > 20 kt
SIGMETs :     Misc.  Thunderstorms  Icing  Turbulence  Mountain Waves  Volcanic Ashes







- Airport Elevation : 1363 ft


ETIC - Grafenwohr Army Air Field

CURRENT METAR :
  • 252058Z AUTO 00000KT 9999 CLR 07/M01 A3018 RMK AO2 SLP230 58003

EXPIRED METARs :
  • 251958Z AUTO 00000KT 9999 CLR 07/M01 A3019 RMK AO2 SLP235
  • 251858Z AUTO VRB03KT 9999 CLR 06/00 A3019 RMK AO2 SLP243

TAF TAF ETIC
Valid from the 25 at 14:00 until the 26 at 20:00 UTC


251411Z 2514/2620 04008KT 9999 SKC QNH3012INS
BECMG 2602/2603 07008KT 9999 SCT035 QNH3016INS TX14/2514Z TNM03/2601Z
No reported NOTAMs for that airfield.



MET'MAP, your aeronautical weather chart ! - Copyright ORBIFLY December 2007 - Disclaimer

ORBIFLY MET'MAP TEAM :

Programming & Development : Alexandra Zaïnal
Concept & Development : Baudouin d'Aumeries
Co-Development & Prog : Marc-Olivier Méhu
Technical & hardware support : Manuel Goepfert

Contact : metmap@orbifly.com




SOURCES & CREDITS :

   NOAA